sensor_id;sensor_type;location;lat;lon;timestamp;temperature;humidity
40630;DHT22;26329;40.388;-3.710;2023-05-10T00:07:28;21.20;45.10
40630;DHT22;26329;40.388;-3.710;2023-05-10T00:17:28;21.10;45.60
40630;DHT22;26329;40.388;-3.710;2023-05-10T00:27:29;20.80;46.50
40630;DHT22;26329;40.388;-3.710;2023-05-10T00:37:30;20.60;46.80
40630;DHT22;26329;40.388;-3.710;2023-05-10T00:47:31;20.30;47.60
40630;DHT22;26329;40.388;-3.710;2023-05-10T00:57:32;20.20;47.60
40630;DHT22;26329;40.388;-3.710;2023-05-10T01:07:33;20.00;48.10
40630;DHT22;26329;40.388;-3.710;2023-05-10T01:17:35;19.80;48.70
40630;DHT22;26329;40.388;-3.710;2023-05-10T01:48:15;18.80;51.70
40630;DHT22;26329;40.388;-3.710;2023-05-10T01:58:29;18.80;51.90
40630;DHT22;26329;40.388;-3.710;2023-05-10T02:08:31;18.50;52.80
40630;DHT22;26329;40.388;-3.710;2023-05-10T02:18:34;18.50;52.90
40630;DHT22;26329;40.388;-3.710;2023-05-10T02:28:37;18.30;53.00
40630;DHT22;26329;40.388;-3.710;2023-05-10T02:38:39;18.30;52.40
40630;DHT22;26329;40.388;-3.710;2023-05-10T02:48:40;18.00;53.00
40630;DHT22;26329;40.388;-3.710;2023-05-10T02:58:41;17.80;52.90
40630;DHT22;26329;40.388;-3.710;2023-05-10T03:08:43;17.70;52.50
40630;DHT22;26329;40.388;-3.710;2023-05-10T03:18:50;17.70;52.40
40630;DHT22;26329;40.388;-3.710;2023-05-10T03:28:56;17.50;52.30
40630;DHT22;26329;40.388;-3.710;2023-05-10T03:38:59;17.30;52.40
40630;DHT22;26329;40.388;-3.710;2023-05-10T03:49:00;17.30;52.40
40630;DHT22;26329;40.388;-3.710;2023-05-10T03:59:01;16.90;53.10
40630;DHT22;26329;40.388;-3.710;2023-05-10T04:09:01;17.00;52.80
40630;DHT22;26329;40.388;-3.710;2023-05-10T04:19:04;16.90;52.90
40630;DHT22;26329;40.388;-3.710;2023-05-10T04:29:05;16.70;53.30
40630;DHT22;26329;40.388;-3.710;2023-05-10T04:39:06;16.70;53.60
40630;DHT22;26329;40.388;-3.710;2023-05-10T04:49:06;16.60;53.40
40630;DHT22;26329;40.388;-3.710;2023-05-10T04:59:07;16.40;53.90
40630;DHT22;26329;40.388;-3.710;2023-05-10T05:09:08;16.30;53.90
40630;DHT22;26329;40.388;-3.710;2023-05-10T05:19:10;16.30;54.30
40630;DHT22;26329;40.388;-3.710;2023-05-10T05:29:11;16.40;53.60
40630;DHT22;26329;40.388;-3.710;2023-05-10T05:39:11;16.30;54.10
40630;DHT22;26329;40.388;-3.710;2023-05-10T05:49:12;16.30;54.00
40630;DHT22;26329;40.388;-3.710;2023-05-10T05:59:13;16.30;53.90
40630;DHT22;26329;40.388;-3.710;2023-05-10T06:09:14;16.20;54.40
40630;DHT22;26329;40.388;-3.710;2023-05-10T06:19:14;16.20;54.00
40630;DHT22;26329;40.388;-3.710;2023-05-10T06:29:15;16.30;54.00
40630;DHT22;26329;40.388;-3.710;2023-05-10T06:39:16;16.50;53.40
40630;DHT22;26329;40.388;-3.710;2023-05-10T06:49:17;16.80;52.50
40630;DHT22;26329;40.388;-3.710;2023-05-10T06:59:17;17.40;51.10
40630;DHT22;26329;40.388;-3.710;2023-05-10T07:09:19;18.00;49.70
40630;DHT22;26329;40.388;-3.710;2023-05-10T07:19:20;18.50;47.70
40630;DHT22;26329;40.388;-3.710;2023-05-10T07:29:21;18.90;47.00
40630;DHT22;26329;40.388;-3.710;2023-05-10T07:39:21;19.50;45.30
40630;DHT22;26329;40.388;-3.710;2023-05-10T07:49:22;19.80;44.30
40630;DHT22;26329;40.388;-3.710;2023-05-10T07:59:24;19.90;43.50
40630;DHT22;26329;40.388;-3.710;2023-05-10T08:09:25;20.00;44.30
40630;DHT22;26329;40.388;-3.710;2023-05-10T08:19:26;20.70;41.90
40630;DHT22;26329;40.388;-3.710;2023-05-10T08:29:26;20.90;40.90
40630;DHT22;26329;40.388;-3.710;2023-05-10T08:39:27;21.30;40.70
40630;DHT22;26329;40.388;-3.710;2023-05-10T08:49:31;20.80;40.40
40630;DHT22;26329;40.388;-3.710;2023-05-10T08:59:32;20.90;39.70
40630;DHT22;26329;40.388;-3.710;2023-05-10T09:09:33;21.30;39.30
40630;DHT22;26329;40.388;-3.710;2023-05-10T09:19:35;21.50;38.70
40630;DHT22;26329;40.388;-3.710;2023-05-10T09:29:42;21.00;38.50
40630;DHT22;26329;40.388;-3.710;2023-05-10T09:39:43;21.10;38.30
40630;DHT22;26329;40.388;-3.710;2023-05-10T09:49:49;22.00;38.00
40630;DHT22;26329;40.388;-3.710;2023-05-10T09:59:50;21.70;37.20
40630;DHT22;26329;40.388;-3.710;2023-05-10T10:09:51;21.50;37.40
40630;DHT22;26329;40.388;-3.710;2023-05-10T10:19:52;21.50;36.30
40630;DHT22;26329;40.388;-3.710;2023-05-10T10:40:41;21.50;35.80
40630;DHT22;26329;40.388;-3.710;2023-05-10T10:50:45;21.70;35.60
40630;DHT22;26329;40.388;-3.710;2023-05-10T11:00:46;21.80;33.90
40630;DHT22;26329;40.388;-3.710;2023-05-10T11:21:00;21.60;35.00
40630;DHT22;26329;40.388;-3.710;2023-05-10T11:31:03;22.00;34.90
40630;DHT22;26329;40.388;-3.710;2023-05-10T11:41:04;22.20;33.80
40630;DHT22;26329;40.388;-3.710;2023-05-10T11:51:09;22.70;33.10
40630;DHT22;26329;40.388;-3.710;2023-05-10T12:01:11;22.90;32.60
40630;DHT22;26329;40.388;-3.710;2023-05-10T12:11:12;23.10;32.10
40630;DHT22;26329;40.388;-3.710;2023-05-10T12:21:15;23.20;31.40
40630;DHT22;26329;40.388;-3.710;2023-05-10T12:31:16;23.00;31.20
40630;DHT22;26329;40.388;-3.710;2023-05-10T12:41:17;23.00;30.90
40630;DHT22;26329;40.388;-3.710;2023-05-10T12:51:18;23.20;30.20
40630;DHT22;26329;40.388;-3.710;2023-05-10T13:01:22;23.50;29.30
40630;DHT22;26329;40.388;-3.710;2023-05-10T13:11:23;23.50;29.10
40630;DHT22;26329;40.388;-3.710;2023-05-10T13:21:24;23.60;28.20
40630;DHT22;26329;40.388;-3.710;2023-05-10T13:31:25;23.80;27.60
40630;DHT22;26329;40.388;-3.710;2023-05-10T13:41:26;23.70;27.50
40630;DHT22;26329;40.388;-3.710;2023-05-10T13:51:27;23.70;27.70
40630;DHT22;26329;40.388;-3.710;2023-05-10T14:01:27;24.00;27.40
40630;DHT22;26329;40.388;-3.710;2023-05-10T14:11:28;24.50;26.60
40630;DHT22;26329;40.388;-3.710;2023-05-10T14:21:29;24.60;26.30
40630;DHT22;26329;40.388;-3.710;2023-05-10T14:31:31;24.70;26.00
40630;DHT22;26329;40.388;-3.710;2023-05-10T14:41:32;24.70;26.30
40630;DHT22;26329;40.388;-3.710;2023-05-10T14:51:33;25.20;25.40
40630;DHT22;26329;40.388;-3.710;2023-05-10T15:01:34;25.20;25.10
40630;DHT22;26329;40.388;-3.710;2023-05-10T15:11:37;25.10;24.60
40630;DHT22;26329;40.388;-3.710;2023-05-10T15:21:38;25.00;25.00
40630;DHT22;26329;40.388;-3.710;2023-05-10T15:31:39;25.20;24.80
40630;DHT22;26329;40.388;-3.710;2023-05-10T15:41:40;25.20;25.50
40630;DHT22;26329;40.388;-3.710;2023-05-10T15:51:40;25.30;24.90
40630;DHT22;26329;40.388;-3.710;2023-05-10T16:01:41;25.50;22.90
40630;DHT22;26329;40.388;-3.710;2023-05-10T16:11:42;25.50;23.80
40630;DHT22;26329;40.388;-3.710;2023-05-10T16:21:43;25.40;24.30
40630;DHT22;26329;40.388;-3.710;2023-05-10T16:31:44;25.40;22.30
40630;DHT22;26329;40.388;-3.710;2023-05-10T16:41:45;25.60;21.70
40630;DHT22;26329;40.388;-3.710;2023-05-10T16:51:46;25.50;20.50
40630;DHT22;26329;40.388;-3.710;2023-05-10T17:01:47;25.60;20.50
40630;DHT22;26329;40.388;-3.710;2023-05-10T17:11:47;25.50;20.80
40630;DHT22;26329;40.388;-3.710;2023-05-10T17:21:48;25.30;19.80
40630;DHT22;26329;40.388;-3.710;2023-05-10T17:31:49;25.20;19.30
40630;DHT22;26329;40.388;-3.710;2023-05-10T17:41:50;24.90;18.70
40630;DHT22;26329;40.388;-3.710;2023-05-10T17:51:50;24.80;18.80
40630;DHT22;26329;40.388;-3.710;2023-05-10T18:01:51;24.70;19.50
40630;DHT22;26329;40.388;-3.710;2023-05-10T18:11:53;24.40;20.00
40630;DHT22;26329;40.388;-3.710;2023-05-10T18:21:54;24.50;20.10
40630;DHT22;26329;40.388;-3.710;2023-05-10T18:31:54;24.40;22.20
40630;DHT22;26329;40.388;-3.710;2023-05-10T18:41:55;24.30;23.80
40630;DHT22;26329;40.388;-3.710;2023-05-10T18:51:56;24.30;25.20
40630;DHT22;26329;40.388;-3.710;2023-05-10T19:01:57;24.10;25.10
40630;DHT22;26329;40.388;-3.710;2023-05-10T19:11:57;23.90;24.60
40630;DHT22;26329;40.388;-3.710;2023-05-10T19:21:58;23.80;25.20
40630;DHT22;26329;40.388;-3.710;2023-05-10T19:31:59;23.90;24.60
40630;DHT22;26329;40.388;-3.710;2023-05-10T19:42:00;23.40;25.30
40630;DHT22;26329;40.388;-3.710;2023-05-10T19:52:01;23.20;25.20
40630;DHT22;26329;40.388;-3.710;2023-05-10T20:02:02;22.40;24.60
40630;DHT22;26329;40.388;-3.710;2023-05-10T20:12:03;22.20;24.90
40630;DHT22;26329;40.388;-3.710;2023-05-10T20:22:04;22.00;25.10
40630;DHT22;26329;40.388;-3.710;2023-05-10T20:32:05;21.60;25.50
40630;DHT22;26329;40.388;-3.710;2023-05-10T20:42:05;22.00;25.30
40630;DHT22;26329;40.388;-3.710;2023-05-10T20:52:07;22.00;25.30
40630;DHT22;26329;40.388;-3.710;2023-05-10T21:02:08;21.20;26.10
40630;DHT22;26329;40.388;-3.710;2023-05-10T21:12:09;21.00;26.80
40630;DHT22;26329;40.388;-3.710;2023-05-10T21:22:10;20.80;27.40
40630;DHT22;26329;40.388;-3.710;2023-05-10T21:32:11;20.80;27.60
40630;DHT22;26329;40.388;-3.710;2023-05-10T21:42:12;20.50;28.00
40630;DHT22;26329;40.388;-3.710;2023-05-10T21:52:12;20.40;28.10
40630;DHT22;26329;40.388;-3.710;2023-05-10T22:02:13;20.20;28.50
40630;DHT22;26329;40.388;-3.710;2023-05-10T22:12:14;20.10;28.80
40630;DHT22;26329;40.388;-3.710;2023-05-10T22:22:14;20.10;29.10
40630;DHT22;26329;40.388;-3.710;2023-05-10T22:32:15;19.80;29.60
40630;DHT22;26329;40.388;-3.710;2023-05-10T22:42:16;19.90;29.80
40630;DHT22;26329;40.388;-3.710;2023-05-10T22:52:16;19.30;31.40
40630;DHT22;26329;40.388;-3.710;2023-05-10T23:02:17;19.10;32.90
40630;DHT22;26329;40.388;-3.710;2023-05-10T23:12:18;18.80;34.60
40630;DHT22;26329;40.388;-3.710;2023-05-10T23:22:19;18.60;35.70
40630;DHT22;26329;40.388;-3.710;2023-05-10T23:32:20;18.30;36.80
40630;DHT22;26329;40.388;-3.710;2023-05-10T23:42:20;17.90;38.10
40630;DHT22;26329;40.388;-3.710;2023-05-10T23:52:21;17.70;39.00
